Time;durP1;ratioP1;P1;durP2;ratioP2;P2;SDS_P1;SDS_P2;PMS_P1;PMS_P2;Temp;Humidity;BMP_temperature;BMP_pressure;BME280_temperature;BME280_humidity;BME280_pressure;Samples;Min_cycle;Max_cycle;Signal;HPM_P1;HPM_P2
2021/04/24 00:00:14;;;;;;;0.90;0.40;;;;;;;5.11;61.73;101927.50;5033730;28;20447;-68
2021/04/24 00:02:40;;;;;;;1.70;0.70;;;;;;;4.99;62.02;101922.09;5034205;28;20451;-68
2021/04/24 00:05:07;;;;;;;0.60;0.40;;;;;;;5.06;62.00;101927.38;5034362;28;20477;-68
2021/04/24 00:07:33;;;;;;;0.40;0.33;;;;;;;5.00;62.07;101922.91;5034073;28;20448;-68
2021/04/24 00:10:02;;;;;;;1.77;0.70;;;;;;;5.08;64.34;101922.59;5034509;28;20519;-68
2021/04/24 00:12:28;;;;;;;1.50;0.70;;;;;;;5.15;65.90;101926.00;5033876;28;20487;-68
2021/04/24 00:14:54;;;;;;;0.90;0.40;;;;;;;5.25;66.19;101926.22;5034263;28;20459;-68
2021/04/24 00:17:20;;;;;;;1.63;1.53;;;;;;;5.43;66.20;101932.56;5033809;28;20526;-69
2021/04/24 00:19:46;;;;;;;0.50;0.50;;;;;;;5.52;65.77;101918.53;5034167;28;20815;-69
2021/04/24 00:22:12;;;;;;;7.10;0.70;;;;;;;5.58;66.21;101924.84;5033821;28;20513;-69
2021/04/24 00:24:38;;;;;;;1.10;0.80;;;;;;;5.67;66.14;101923.44;5034118;28;20463;-69
2021/04/24 00:27:05;;;;;;;0.40;0.30;;;;;;;5.67;66.39;101920.75;5033693;28;20963;-68
2021/04/24 00:29:33;;;;;;;0.40;0.30;;;;;;;5.59;67.23;101918.41;5033945;28;20496;-68
2021/04/24 00:31:59;;;;;;;1.03;0.93;;;;;;;5.61;67.45;101918.19;5033357;28;20530;-68
2021/04/24 00:34:25;;;;;;;0.80;0.67;;;;;;;5.56;68.35;101916.19;5033809;28;20474;-68
2021/04/24 00:36:51;;;;;;;3.40;0.83;;;;;;;5.46;66.35;101915.97;5033541;28;20463;-68
2021/04/24 00:39:17;;;;;;;0.83;0.50;;;;;;;5.36;65.10;101916.56;5033782;28;20447;-68
2021/04/24 00:41:43;;;;;;;2.43;0.70;;;;;;;5.36;66.34;101919.25;5033452;28;20500;-68
2021/04/24 00:44:10;;;;;;;1.23;1.13;;;;;;;5.29;67.33;101916.66;5033372;28;20463;-68
2021/04/24 00:46:36;;;;;;;0.87;0.60;;;;;;;5.31;66.75;101911.88;5033710;28;20439;-68
2021/04/24 00:49:03;;;;;;;0.63;0.63;;;;;;;5.28;68.08;101915.03;5033564;28;20458;-68
2021/04/24 00:51:29;;;;;;;2.30;0.70;;;;;;;5.18;68.31;101911.25;5033821;28;20442;-68
2021/04/24 00:53:55;;;;;;;0.80;0.80;;;;;;;5.21;67.66;101914.31;5032849;28;20483;-67
2021/04/24 00:56:21;;;;;;;0.57;0.40;;;;;;;5.12;68.26;101910.34;5033553;28;20553;-68
2021/04/24 00:58:47;;;;;;;0.70;0.60;;;;;;;5.02;69.34;101913.59;5033414;28;20448;-68
2021/04/24 01:01:13;;;;;;;0.60;0.40;;;;;;;5.04;69.86;101906.09;5033275;28;20447;-68
2021/04/24 01:03:39;;;;;;;1.93;0.70;;;;;;;5.06;71.86;101911.28;5033147;28;20463;-68
2021/04/24 01:06:05;;;;;;;0.60;0.40;;;;;;;5.00;71.66;101906.81;5032644;28;20451;-68
2021/04/24 01:08:31;;;;;;;1.13;0.70;;;;;;;4.98;71.76;101911.59;5033104;28;20953;-68
2021/04/24 01:10:57;;;;;;;5.23;0.90;;;;;;;4.93;73.28;101917.66;5033112;28;20948;-68
2021/04/24 01:13:24;;;;;;;1.93;0.40;;;;;;;5.03;73.80;101911.72;5032970;28;20498;-68
2021/04/24 01:15:50;;;;;;;3.60;1.30;;;;;;;5.11;74.28;101908.69;5033281;28;20451;-68
2021/04/24 01:18:18;;;;;;;0.40;0.40;;;;;;;4.99;76.00;101905.19;5039307;28;20455;-69
2021/04/24 01:20:46;;;;;;;0.83;0.83;;;;;;;5.08;75.33;101911.84;5037504;28;20443;-68
2021/04/24 01:23:13;;;;;;;0.90;0.40;;;;;;;5.06;76.21;101917.47;5032810;28;20486;-68
2021/04/24 01:25:41;;;;;;;3.60;1.10;;;;;;;5.00;76.41;101917.53;5032521;28;20447;-68
2021/04/24 01:28:08;;;;;;;0.60;0.40;;;;;;;4.99;76.64;101906.00;5032746;28;20451;-68
2021/04/24 01:30:37;;;;;;;0.50;0.43;;;;;;;5.06;76.83;101905.91;5033035;28;20821;-68
2021/04/24 01:33:05;;;;;;;1.30;1.20;;;;;;;5.04;78.23;101910.66;5032425;28;20987;-68
2021/04/24 01:35:32;;;;;;;0.50;0.30;;;;;;;4.96;77.63;101908.34;5033058;28;20504;-68
2021/04/24 01:37:59;;;;;;;1.90;0.53;;;;;;;4.95;78.69;101910.19;5032939;28;20458;-68
2021/04/24 01:40:27;;;;;;;1.73;1.63;;;;;;;5.00;78.31;101901.44;5033079;28;20435;-67
2021/04/24 01:42:53;;;;;;;0.40;0.40;;;;;;;4.94;77.38;101899.69;5032709;28;20549;-68
2021/04/24 01:45:20;;;;;;;0.87;0.40;;;;;;;4.93;76.70;101903.44;5032843;28;20944;-68
2021/04/24 01:47:47;;;;;;;0.50;0.50;;;;;;;4.89;75.92;101904.94;5032699;28;20481;-68
2021/04/24 01:50:16;;;;;;;1.90;0.77;;;;;;;4.72;75.79;101902.91;5032997;28;20443;-68
2021/04/24 01:52:45;;;;;;;0.50;0.40;;;;;;;4.71;75.46;101903.94;5032502;28;20905;-68
2021/04/24 01:55:13;;;;;;;3.70;0.50;;;;;;;4.62;76.11;101905.31;5032770;28;20852;-68
2021/04/24 01:57:40;;;;;;;0.90;0.90;;;;;;;4.53;76.75;101904.00;5032535;28;20469;-68
2021/04/24 02:00:08;;;;;;;1.13;1.03;;;;;;;4.57;76.82;101907.88;5032763;28;20493;-68
2021/04/24 02:02:34;;;;;;;0.53;0.47;;;;;;;4.62;77.55;101894.59;5032608;28;20493;-68
2021/04/24 02:05:01;;;;;;;0.50;0.40;;;;;;;4.66;78.28;101901.13;5032752;28;20463;-67
2021/04/24 02:07:27;;;;;;;2.40;0.90;;;;;;;4.72;79.36;101899.41;5032369;28;20463;-68
2021/04/24 02:09:53;;;;;;;3.13;0.73;;;;;;;4.79;79.31;101897.44;5032691;28;20474;-67
2021/04/24 02:12:19;;;;;;;0.97;0.53;;;;;;;4.83;79.23;101900.50;5032356;28;20439;-68
2021/04/24 02:14:47;;;;;;;0.40;0.30;;;;;;;4.89;79.52;101899.56;5032744;28;20463;-68
2021/04/24 02:17:17;;;;;;;1.47;0.60;;;;;;;4.89;79.99;101889.63;5035459;28;20446;-68
2021/04/24 02:19:45;;;;;;;0.40;0.30;;;;;;;4.90;80.35;101898.50;5035347;28;20453;-69
2021/04/24 02:22:12;;;;;;;0.40;0.40;;;;;;;4.90;79.89;101898.50;5036025;28;20956;-68
2021/04/24 02:24:42;;;;;;;0.50;0.40;;;;;;;4.76;80.71;101890.66;5036573;28;20508;-69
2021/04/24 02:27:09;;;;;;;2.70;0.97;;;;;;;4.70;80.67;101891.59;5035781;28;20446;-68
2021/04/24 02:29:35;;;;;;;1.33;0.50;;;;;;;4.70;80.70;101891.59;5036275;28;20497;-67
2021/04/24 02:32:06;;;;;;;1.97;1.20;;;;;;;4.74;80.33;101892.75;5035984;28;20884;-68
2021/04/24 02:34:32;;;;;;;0.50;0.40;;;;;;;4.69;80.76;101889.97;5036330;28;20459;-68
2021/04/24 02:36:58;;;;;;;0.60;0.50;;;;;;;4.60;80.82;101885.94;5035906;28;20485;-69
2021/04/24 02:39:32;;;;;;;0.60;0.60;;;;;;;4.46;81.88;101895.22;5035846;28;20458;-69
2021/04/24 02:41:58;;;;;;;1.17;1.07;;;;;;;4.45;81.78;101889.03;5035718;28;20453;-68
2021/04/24 02:44:24;;;;;;;0.70;0.60;;;;;;;4.47;81.59;101892.34;5035769;28;20992;-69
2021/04/24 02:46:50;;;;;;;0.50;0.50;;;;;;;4.26;81.28;101888.28;5035427;28;20454;-68
2021/04/24 02:49:17;;;;;;;1.00;0.80;;;;;;;4.19;79.63;101894.75;5035852;28;20443;-68
2021/04/24 02:51:43;;;;;;;1.20;0.80;;;;;;;4.03;78.62;101890.84;5035589;28;20447;-68
2021/04/24 02:54:09;;;;;;;0.40;0.40;;;;;;;3.95;79.96;101883.13;5057166;22;20480;-63
2021/04/24 02:56:35;;;;;;;2.80;1.90;;;;;;;3.87;79.53;101886.91;5075443;28;20935;-62
2021/04/24 02:59:02;;;;;;;0.70;0.50;;;;;;;3.86;80.32;101887.13;5075821;28;20474;-63
2021/04/24 03:01:28;;;;;;;0.50;0.43;;;;;;;3.74;80.92;101882.50;5075627;28;20464;-63
2021/04/24 03:03:54;;;;;;;1.60;1.50;;;;;;;3.64;81.02;101878.72;5075563;28;20798;-63
2021/04/24 03:06:21;;;;;;;2.60;2.07;;;;;;;3.61;80.66;101887.19;5075372;28;20789;-63
2021/04/24 03:08:47;;;;;;;0.60;0.60;;;;;;;3.47;81.66;101889.19;5075567;28;20433;-63
2021/04/24 03:11:13;;;;;;;1.73;1.13;;;;;;;3.45;82.05;101888.59;5075566;28;20854;-63
2021/04/24 03:13:38;;;;;;;0.97;0.43;;;;;;;3.52;82.11;101886.66;5075466;28;21036;-63
2021/04/24 03:16:05;;;;;;;1.90;0.97;;;;;;;3.43;82.59;101882.66;5075564;28;20464;-63
2021/04/24 03:18:31;;;;;;;0.60;0.47;;;;;;;3.56;82.96;101884.38;5075377;28;20495;-63
2021/04/24 03:20:56;;;;;;;0.90;0.53;;;;;;;3.66;83.04;101884.66;5075299;28;20446;-63
2021/04/24 03:23:23;;;;;;;1.07;0.77;;;;;;;3.54;84.21;101881.91;5075325;28;20441;-63
2021/04/24 03:25:49;;;;;;;0.50;0.40;;;;;;;3.42;86.07;101884.50;5074830;28;20889;-64
2021/04/24 03:28:15;;;;;;;1.10;0.87;;;;;;;3.36;86.15;101881.88;5074994;28;20437;-63
2021/04/24 03:30:41;;;;;;;3.40;1.17;;;;;;;3.35;86.33;101881.06;5076159;28;20444;-63
2021/04/24 03:33:07;;;;;;;0.50;0.40;;;;;;;3.28;86.93;101875.78;5076250;28;20481;-63
2021/04/24 03:35:33;;;;;;;1.03;0.60;;;;;;;3.31;86.93;101879.03;5076132;28;20457;-64
2021/04/24 03:37:59;;;;;;;0.50;0.50;;;;;;;3.45;86.12;101884.06;5075961;28;20438;-63
2021/04/24 03:40:26;;;;;;;0.97;0.70;;;;;;;3.46;87.12;101879.53;5076083;28;20555;-63
2021/04/24 03:42:52;;;;;;;0.60;0.60;;;;;;;3.48;87.41;101877.44;5076087;28;20452;-63
2021/04/24 03:45:19;;;;;;;0.97;0.97;;;;;;;3.65;85.45;101883.84;5075752;28;20457;-63
2021/04/24 03:47:46;;;;;;;1.20;1.13;;;;;;;3.65;85.92;101883.84;5075857;28;20449;-63
2021/04/24 03:50:13;;;;;;;2.03;1.33;;;;;;;3.54;85.55;101889.94;5075320;28;20827;-63
2021/04/24 03:52:39;;;;;;;7.10;0.90;;;;;;;3.58;83.55;101888.44;5075633;28;21066;-64
2021/04/24 03:55:06;;;;;;;0.80;0.67;;;;;;;3.48;82.55;101886.28;5074372;28;20484;-63
2021/04/24 03:57:33;;;;;;;1.10;0.90;;;;;;;3.49;83.39;101889.78;5074768;28;21000;-63
2021/04/24 03:59:59;;;;;;;1.77;0.60;;;;;;;3.52;84.28;101881.31;5074803;28;20441;-63
2021/04/24 04:02:25;;;;;;;0.87;0.47;;;;;;;3.49;84.86;101889.78;5074655;28;20473;-63
2021/04/24 04:04:51;;;;;;;0.93;0.83;;;;;;;3.48;82.96;101888.16;5074870;28;20527;-64
2021/04/24 04:07:17;;;;;;;0.57;0.40;;;;;;;3.35;83.50;101886.41;5075163;28;20491;-63
2021/04/24 04:09:43;;;;;;;0.73;0.50;;;;;;;3.30;83.11;101888.94;5074891;28;20437;-62
2021/04/24 04:12:09;;;;;;;0.60;0.50;;;;;;;3.21;83.29;101892.94;5074579;28;20945;-62
2021/04/24 04:14:37;;;;;;;0.50;0.40;;;;;;;3.27;83.10;101897.41;5074494;28;20492;-63
2021/04/24 04:17:03;;;;;;;3.50;0.90;;;;;;;3.34;83.08;101892.00;5074725;28;20449;-62
2021/04/24 04:19:29;;;;;;;4.20;0.67;;;;;;;3.34;83.20;101894.69;5074522;28;20448;-62
2021/04/24 04:21:55;;;;;;;1.17;1.07;;;;;;;3.41;83.39;101893.59;5074094;28;20446;-63
2021/04/24 04:24:21;;;;;;;1.43;0.53;;;;;;;3.47;85.23;101894.56;5074546;28;20511;-63
2021/04/24 04:26:47;;;;;;;2.10;0.73;;;;;;;3.64;86.28;101909.00;5074460;28;20445;-63
2021/04/24 04:29:13;;;;;;;3.90;0.73;;;;;;;3.78;87.71;101910.50;5074446;28;20445;-63
2021/04/24 04:31:40;;;;;;;2.40;0.97;;;;;;;3.84;87.31;101902.59;5074395;28;20520;-64
2021/04/24 04:34:05;;;;;;;1.00;0.50;;;;;;;3.87;86.78;101902.16;5074235;28;20489;-64
2021/04/24 04:36:32;;;;;;;1.07;1.00;;;;;;;3.94;88.08;101910.94;5074982;28;20849;-61
2021/04/24 04:38:58;;;;;;;1.47;0.70;;;;;;;3.99;89.75;101908.44;5073599;28;20441;-62
2021/04/24 04:41:24;;;;;;;0.47;0.37;;;;;;;4.08;90.20;101911.63;5073431;28;20846;-61
2021/04/24 04:43:50;;;;;;;0.67;0.67;;;;;;;4.13;89.97;101912.59;5073657;28;20437;-61
2021/04/24 04:46:16;;;;;;;3.33;1.70;;;;;;;4.18;90.40;101918.09;5073483;28;20445;-61
2021/04/24 04:48:43;;;;;;;1.90;1.80;;;;;;;4.23;90.12;101920.91;5073623;28;20441;-61
2021/04/24 04:51:09;;;;;;;1.17;1.17;;;;;;;4.27;90.01;101918.59;5073282;28;20456;-61
2021/04/24 04:53:35;;;;;;;1.97;1.80;;;;;;;4.33;90.18;101923.03;5073142;28;20482;-61
2021/04/24 04:56:01;;;;;;;1.13;1.03;;;;;;;4.37;90.77;101924.22;5073026;28;20468;-61
2021/04/24 04:58:27;;;;;;;2.53;0.53;;;;;;;4.40;90.62;101926.47;5073310;28;20449;-61
2021/04/24 05:00:53;;;;;;;1.90;1.13;;;;;;;4.47;90.59;101929.06;5073226;28;20441;-61
2021/04/24 05:03:19;;;;;;;0.67;0.57;;;;;;;4.44;90.68;101934.88;5073203;28;20444;-61
2021/04/24 05:05:45;;;;;;;0.80;0.70;;;;;;;4.47;90.61;101935.25;5073375;28;20469;-62
2021/04/24 05:08:11;;;;;;;0.50;0.30;;;;;;;4.56;90.04;101938.44;5073333;28;20437;-62
2021/04/24 05:10:37;;;;;;;0.97;0.87;;;;;;;4.62;90.39;101940.22;5073500;28;20445;-62
2021/04/24 05:13:03;;;;;;;3.53;1.30;;;;;;;4.61;90.73;101943.13;5073547;28;20481;-63
2021/04/24 05:15:29;;;;;;;7.00;1.93;;;;;;;4.65;90.68;101938.91;5073874;28;20465;-63
2021/04/24 05:17:55;;;;;;;1.63;1.03;;;;;;;4.70;90.45;101934.53;5074337;28;20856;-62
2021/04/24 05:20:21;;;;;;;1.90;0.90;;;;;;;4.76;90.18;101940.84;5073947;28;21007;-63
2021/04/24 05:22:48;;;;;;;0.97;0.40;;;;;;;4.79;90.38;101946.56;5073679;28;20490;-63
2021/04/24 05:25:16;;;;;;;1.00;0.70;;;;;;;4.77;90.17;101945.97;5074008;28;21053;-63
2021/04/24 05:27:45;;;;;;;3.63;1.40;;;;;;;4.83;90.35;101946.94;5074542;28;20881;-63
2021/04/24 05:30:12;;;;;;;0.77;0.77;;;;;;;4.84;90.31;101945.88;5074118;28;20441;-63
2021/04/24 05:32:39;;;;;;;2.63;0.90;;;;;;;4.84;90.31;101956.63;5073045;28;20465;-63
2021/04/24 05:35:06;;;;;;;0.80;0.80;;;;;;;4.88;90.03;101957.00;5073586;28;20981;-63
2021/04/24 05:37:32;;;;;;;1.33;1.27;;;;;;;4.92;90.17;101963.53;5073494;28;20434;-63
2021/04/24 05:39:58;;;;;;;0.50;0.50;;;;;;;5.00;90.06;101955.13;5073455;28;20437;-63
2021/04/24 05:42:24;;;;;;;5.00;1.50;;;;;;;5.02;90.18;101958.44;5073559;28;20441;-63
2021/04/24 05:44:50;;;;;;;2.17;2.03;;;;;;;5.04;89.76;101956.31;5073620;28;20457;-64
2021/04/24 05:47:16;;;;;;;1.30;1.20;;;;;;;5.12;89.86;101949.81;5073131;28;20445;-63
2021/04/24 05:49:42;;;;;;;1.27;0.77;;;;;;;5.14;89.06;101959.28;5073386;28;20449;-63
2021/04/24 05:52:08;;;;;;;6.20;0.63;;;;;;;5.17;89.27;101950.72;5076403;28;20448;-63
2021/04/24 05:54:34;;;;;;;2.87;2.50;;;;;;;5.24;89.31;101956.84;5077001;28;20495;-64
2021/04/24 05:57:01;;;;;;;2.93;2.23;;;;;;;5.26;89.50;101952.03;5076798;28;20903;-64
2021/04/24 05:59:27;;;;;;;3.10;1.13;;;;;;;5.23;90.02;101963.25;5077133;28;20494;-63
2021/04/24 06:01:53;;;;;;;1.30;0.70;;;;;;;5.39;89.31;101963.63;5076729;28;20898;-63
2021/04/24 06:04:19;;;;;;;1.73;1.13;;;;;;;5.43;88.81;101957.53;5077020;28;20464;-63
2021/04/24 06:06:45;;;;;;;1.53;0.70;;;;;;;5.40;88.98;101966.09;5068367;28;20441;-62
2021/04/24 06:09:11;;;;;;;1.20;0.77;;;;;;;5.31;89.64;101965.63;5076978;28;20441;-62
2021/04/24 06:11:37;;;;;;;2.80;0.80;;;;;;;5.44;89.06;101974.47;5076908;28;20445;-63
2021/04/24 06:14:04;;;;;;;1.33;1.23;;;;;;;5.43;89.38;101976.34;5076390;28;20480;-64
2021/04/24 06:16:30;;;;;;;2.60;1.60;;;;;;;5.42;89.13;101973.91;5076410;28;20934;-65
2021/04/24 06:18:56;;;;;;;0.60;0.50;;;;;;;5.49;89.40;101974.59;5076463;28;20961;-67
2021/04/24 06:21:22;;;;;;;2.70;1.20;;;;;;;5.56;88.89;101983.38;5076588;28;20472;-65
2021/04/24 06:23:48;;;;;;;2.07;1.43;;;;;;;5.59;88.78;101977.56;5076167;28;20946;-66
2021/04/24 06:26:14;;;;;;;1.60;1.50;;;;;;;5.68;89.08;101976.16;5076407;28;20444;-67
2021/04/24 06:28:40;;;;;;;1.10;0.70;;;;;;;5.74;89.04;101977.88;5076344;28;20495;-66
2021/04/24 06:31:07;;;;;;;1.53;1.10;;;;;;;5.87;87.93;101978.72;5076212;28;20452;-66
2021/04/24 06:33:33;;;;;;;6.23;1.10;;;;;;;5.89;87.80;101976.59;5076203;28;20477;-66
2021/04/24 06:35:59;;;;;;;6.30;2.57;;;;;;;5.95;87.53;101978.38;5075979;28;21032;-66
2021/04/24 06:38:25;;;;;;;0.80;0.80;;;;;;;6.09;87.25;101978.94;5076157;28;20441;-66
2021/04/24 06:40:51;;;;;;;3.33;2.33;;;;;;;6.18;86.28;101991.78;5076227;28;20433;-66
2021/04/24 06:43:17;;;;;;;2.10;1.43;;;;;;;6.07;86.23;101979.19;5076105;28;20433;-66
2021/04/24 06:45:43;;;;;;;2.93;1.43;;;;;;;6.09;86.62;101985.16;5075648;28;20472;-66
2021/04/24 06:48:10;;;;;;;2.27;1.73;;;;;;;6.12;86.30;101976.59;5076062;28;20502;-67
2021/04/24 06:50:36;;;;;;;1.10;1.00;;;;;;;6.13;86.61;101980.94;5075886;28;20950;-66
2021/04/24 06:53:02;;;;;;;1.73;0.97;;;;;;;6.18;86.62;101982.91;5075403;28;20481;-66
2021/04/24 06:55:28;;;;;;;4.20;2.67;;;;;;;6.18;85.83;101978.34;5066481;28;20571;-66
2021/04/24 06:57:54;;;;;;;1.33;1.07;;;;;;;6.11;86.36;101976.81;5075854;28;20934;-66
2021/04/24 07:00:21;;;;;;;1.90;1.70;;;;;;;6.18;86.31;101989.09;5075782;28;20816;-65
2021/04/24 07:02:47;;;;;;;1.00;0.80;;;;;;;6.20;86.02;101978.94;5061441;28;20465;-64
2021/04/24 07:05:15;;;;;;;1.70;0.50;;;;;;;6.17;85.84;101982.09;5055522;28;20458;-65
2021/04/24 07:07:42;;;;;;;1.70;1.00;;;;;;;6.22;85.79;101978.69;5055603;28;20446;-66
2021/04/24 07:10:10;;;;;;;1.47;1.17;;;;;;;6.26;84.87;101974.47;5055686;28;20441;-66
2021/04/24 07:12:37;;;;;;;1.27;0.97;;;;;;;6.29;85.15;101980.22;5055563;28;20505;-65
2021/04/24 07:15:03;;;;;;;1.93;0.90;;;;;;;6.36;84.93;101973.84;5055423;28;20512;-65
2021/04/24 07:17:29;;;;;;;5.53;1.90;;;;;;;6.40;84.98;101969.63;5055125;28;20449;-65
2021/04/24 07:19:55;;;;;;;1.63;1.53;;;;;;;6.42;84.76;101978.28;5055146;28;20442;-66
2021/04/24 07:22:22;;;;;;;1.70;1.37;;;;;;;6.50;84.91;101980.59;5055256;28;20454;-66
2021/04/24 07:24:48;;;;;;;1.50;1.13;;;;;;;6.61;84.34;101979.75;5055233;28;20472;-66
2021/04/24 07:27:14;;;;;;;4.87;1.80;;;;;;;6.55;83.83;101978.84;5055483;28;20449;-65
2021/04/24 07:29:41;;;;;;;1.83;1.43;;;;;;;6.62;83.18;101973.31;5055458;28;20439;-66
2021/04/24 07:32:07;;;;;;;1.60;0.70;;;;;;;6.73;83.40;101977.84;5055695;28;20453;-66
2021/04/24 07:34:33;;;;;;;1.40;1.30;;;;;;;6.84;82.25;101973.44;5055012;28;20565;-66
2021/04/24 07:37:00;;;;;;;2.57;1.40;;;;;;;6.92;81.91;101981.13;5054868;28;20936;-66
2021/04/24 07:39:27;;;;;;;1.20;1.07;;;;;;;7.00;79.48;101975.38;5055000;28;20842;-66
2021/04/24 07:41:53;;;;;;;2.97;1.40;;;;;;;6.96;79.04;101981.47;5054999;28;20434;-66
2021/04/24 07:44:19;;;;;;;1.90;0.93;;;;;;;6.97;79.47;101980.41;5055058;28;20561;-66
2021/04/24 07:46:45;;;;;;;0.63;0.63;;;;;;;6.97;79.34;101977.72;5054867;28;20454;-66
2021/04/24 07:49:11;;;;;;;1.37;0.93;;;;;;;7.06;79.00;101976.25;5054883;28;20977;-66
2021/04/24 07:51:37;;;;;;;1.40;1.07;;;;;;;7.07;78.72;101978.69;5054728;28;20446;-65
2021/04/24 07:54:03;;;;;;;3.30;0.80;;;;;;;7.08;79.51;101977.66;5054515;28;21014;-66
2021/04/24 07:56:30;;;;;;;1.83;0.83;;;;;;;7.19;79.33;101983.22;5054371;28;20974;-66
2021/04/24 07:58:56;;;;;;;2.47;1.47;;;;;;;7.31;78.26;101976.69;5054743;28;20449;-64
2021/04/24 08:01:22;;;;;;;1.80;1.23;;;;;;;7.41;77.45;101977.91;5054804;28;20438;-62
2021/04/24 08:03:48;;;;;;;4.00;3.13;;;;;;;7.51;75.91;101976.19;5054231;28;20528;-63
2021/04/24 08:06:13;;;;;;;1.80;1.40;;;;;;;7.58;76.11;101968.75;5054141;28;20453;-64
2021/04/24 08:08:39;;;;;;;1.80;1.20;;;;;;;7.69;75.45;101971.59;5054259;28;20449;-65
2021/04/24 08:11:05;;;;;;;0.80;0.60;;;;;;;7.90;73.98;101964.63;5054561;28;20445;-65
2021/04/24 08:13:32;;;;;;;1.33;1.23;;;;;;;8.00;73.34;101970.97;5054683;28;20493;-66
2021/04/24 08:15:58;;;;;;;8.53;1.07;;;;;;;8.16;72.63;101971.19;5053937;28;20832;-66
2021/04/24 08:18:24;;;;;;;1.10;0.57;;;;;;;8.19;70.94;101974.19;5054164;28;20501;-66
2021/04/24 08:20:50;;;;;;;2.00;1.63;;;;;;;8.26;70.58;101961.31;5054112;28;20528;-65
2021/04/24 08:23:16;;;;;;;2.50;1.00;;;;;;;8.33;70.62;101964.66;5053945;28;20438;-66
2021/04/24 08:25:42;;;;;;;0.50;0.40;;;;;;;8.63;70.54;101963.38;5054015;28;20458;-66
2021/04/24 08:28:08;;;;;;;2.97;1.10;;;;;;;8.86;69.54;101958.78;5053951;28;20453;-66
2021/04/24 08:30:35;;;;;;;2.93;0.73;;;;;;;8.96;66.71;101966.97;5054161;28;20474;-64
2021/04/24 08:33:02;;;;;;;1.10;0.97;;;;;;;8.97;65.46;101955.09;5054040;28;20478;-64
2021/04/24 08:35:28;;;;;;;0.90;0.50;;;;;;;9.11;63.89;101967.09;5068327;28;20476;-65
2021/04/24 08:37:54;;;;;;;3.33;0.90;;;;;;;9.17;63.97;101968.78;5074183;28;20437;-65
2021/04/24 08:40:20;;;;;;;2.30;1.50;;;;;;;9.10;63.42;101960.06;5073757;28;20437;-65
2021/04/24 08:42:48;;;;;;;1.90;0.63;;;;;;;9.16;64.13;101950.91;5073533;28;20445;-65
2021/04/24 08:45:16;;;;;;;1.07;0.83;;;;;;;9.23;63.30;101948.81;5073238;28;20473;-65
2021/04/24 08:47:45;;;;;;;2.60;0.90;;;;;;;9.54;64.41;101954.47;5073661;28;20445;-65
2021/04/24 08:50:14;;;;;;;3.67;1.50;;;;;;;9.69;63.55;101954.56;5073681;28;20891;-65
2021/04/24 08:52:41;;;;;;;2.60;1.70;;;;;;;9.42;62.49;101961.94;5073554;28;20445;-65
2021/04/24 08:55:08;;;;;;;3.63;0.90;;;;;;;9.51;63.23;101965.78;5097681;22;20539;-72
2021/04/24 08:57:37;;;;;;;0.50;0.50;;;;;;;9.64;62.69;101957.22;5073500;28;20445;-73
2021/04/24 09:00:05;;;;;;;1.07;0.63;;;;;;;9.75;62.28;101967.06;5073175;28;20483;-72
2021/04/24 09:02:31;;;;;;;2.00;1.03;;;;;;;9.82;62.07;101967.63;5073213;28;20441;-72
2021/04/24 09:04:58;;;;;;;2.20;0.70;;;;;;;9.94;61.97;101974.72;5073214;28;20460;-72
2021/04/24 09:07:24;;;;;;;1.20;0.73;;;;;;;9.89;61.04;101972.81;5073254;28;20867;-73
2021/04/24 09:09:56;;;;;;;0.60;0.50;;;;;;;9.82;61.17;101973.03;5073346;28;20437;-72
2021/04/24 09:12:34;;;;;;;1.00;0.93;;;;;;;9.96;61.22;101975.28;5073292;28;20472;-72
2021/04/24 09:15:07;;;;;;;2.63;0.90;;;;;;;10.17;59.89;101974.31;5073470;28;20484;-73
2021/04/24 09:17:50;;;;;;;2.60;0.93;;;;;;;10.34;59.86;101979.56;5073258;28;20906;-72
2021/04/24 09:20:19;;;;;;;1.03;0.73;;;;;;;10.44;58.31;101982.28;5073256;28;20831;-72
2021/04/24 09:22:53;;;;;;;0.70;0.60;;;;;;;10.41;56.71;101979.31;5072693;28;20461;-73
2021/04/24 09:25:19;;;;;;;1.33;0.60;;;;;;;10.42;57.75;101979.06;5072339;28;21004;-73
2021/04/24 09:27:47;;;;;;;1.87;1.03;;;;;;;10.46;57.58;101990.19;5072914;28;20445;-72
2021/04/24 09:30:16;;;;;;;0.93;0.93;;;;;;;10.39;57.78;101984.19;5073106;28;20445;-72
2021/04/24 09:32:42;;;;;;;0.77;0.50;;;;;;;10.23;57.26;101989.50;5072998;28;20446;-72
2021/04/24 09:35:09;;;;;;;1.53;0.87;;;;;;;10.21;56.43;101983.53;5072701;28;20489;-72
2021/04/24 09:37:36;;;;;;;0.70;0.63;;;;;;;10.21;56.55;101980.81;5072941;28;20445;-72
2021/04/24 09:40:10;;;;;;;0.50;0.30;;;;;;;10.49;56.82;101986.91;5073038;28;20452;-72
2021/04/24 09:42:39;;;;;;;0.80;0.70;;;;;;;10.50;56.00;101970.41;5072994;28;20800;-73
2021/04/24 09:45:25;;;;;;;1.53;0.90;;;;;;;10.39;53.87;101979.56;5072893;28;20465;-73
2021/04/24 09:47:51;;;;;;;1.00;0.70;;;;;;;10.21;54.80;101975.41;5073091;28;20434;-73
2021/04/24 09:50:19;;;;;;;0.50;0.37;;;;;;;10.21;55.27;101978.13;5072749;28;20452;-73
2021/04/24 09:52:46;;;;;;;1.47;0.73;;;;;;;10.21;55.61;101978.13;5072528;28;20437;-73
2021/04/24 09:55:17;;;;;;;0.67;0.60;;;;;;;10.30;56.09;101983.88;5072566;28;20489;-72
2021/04/24 09:57:43;;;;;;;1.43;0.60;;;;;;;10.24;55.83;101985.75;5072874;28;20441;-73
2021/04/24 10:00:14;;;;;;;0.87;0.53;;;;;;;10.14;55.93;101987.53;5072479;28;20938;-73
2021/04/24 10:02:41;;;;;;;0.77;0.60;;;;;;;10.01;54.98;101980.75;5072771;28;20458;-73
2021/04/24 10:05:10;;;;;;;0.60;0.50;;;;;;;10.08;55.16;101979.41;5072743;28;20448;-73
2021/04/24 10:07:37;;;;;;;0.60;0.50;;;;;;;10.03;55.03;101979.38;5072797;28;20452;-73
2021/04/24 10:10:07;;;;;;;0.50;0.40;;;;;;;10.11;53.90;101980.78;5072290;28;20518;-73
2021/04/24 10:12:33;;;;;;;1.20;0.70;;;;;;;10.23;53.24;101973.28;5072894;28;20452;-73
2021/04/24 10:14:59;;;;;;;1.73;1.03;;;;;;;10.29;52.13;101971.41;5072501;28;20481;-73
2021/04/24 10:17:26;;;;;;;2.30;0.70;;;;;;;10.24;52.25;101964.09;5072272;28;20938;-73
2021/04/24 10:19:52;;;;;;;0.50;0.50;;;;;;;10.38;52.97;101975.25;5072643;28;20445;-73
2021/04/24 10:22:20;;;;;;;1.43;0.83;;;;;;;10.61;52.41;101963.13;5072544;28;20800;-73
2021/04/24 10:24:46;;;;;;;1.23;0.90;;;;;;;10.76;52.07;101962.34;5072462;28;20818;-73
2021/04/24 10:27:15;;;;;;;3.07;1.20;;;;;;;10.84;51.19;101961.81;5072157;28;20953;-73
2021/04/24 10:29:43;;;;;;;1.10;0.90;;;;;;;10.86;50.15;101968.59;5072478;28;20441;-73
2021/04/24 10:32:09;;;;;;;0.87;0.60;;;;;;;11.03;49.70;101962.94;5072310;28;20511;-73
2021/04/24 10:34:36;;;;;;;1.70;1.07;;;;;;;11.15;49.58;101959.13;5072193;28;20509;-73
2021/04/24 10:37:02;;;;;;;2.10;1.23;;;;;;;11.26;49.55;101950.72;5073064;28;20479;-73
2021/04/24 10:39:29;;;;;;;2.30;1.10;;;;;;;11.26;48.92;101958.88;5075974;28;20437;-73
2021/04/24 10:41:59;;;;;;;4.53;0.70;;;;;;;11.47;48.71;101954.25;5075895;28;20445;-73
2021/04/24 10:44:44;;;;;;;1.27;0.60;;;;;;;11.71;49.04;101951.75;5075489;28;21005;-73
2021/04/24 10:47:11;;;;;;;1.07;0.37;;;;;;;11.43;48.91;101953.16;5075619;28;20910;-73
2021/04/24 10:49:51;;;;;;;1.20;1.10;;;;;;;11.65;50.32;101954.78;5076162;28;20440;-73
2021/04/24 10:52:22;;;;;;;1.57;0.70;;;;;;;12.07;49.84;101946.25;5075880;28;20432;-73
2021/04/24 10:55:31;;;;;;;1.27;1.00;;;;;;;12.05;48.91;101943.81;5075126;28;21025;-73
2021/04/24 10:57:59;;;;;;;1.07;0.70;;;;;;;12.06;47.27;101947.34;5054931;28;20469;-73
2021/04/24 11:00:54;;;;;;;1.53;1.07;;;;;;;12.46;46.63;101935.47;5075477;28;20499;-73
2021/04/24 11:03:45;;;;;;;2.40;0.50;;;;;;;12.49;46.28;101939.56;5075816;28;20481;-73
2021/04/24 11:06:13;;;;;;;0.53;0.53;;;;;;;12.62;45.45;101942.47;5075529;28;20838;-71
2021/04/24 11:08:40;;;;;;;0.80;0.80;;;;;;;12.11;46.96;101950.03;5074798;28;20459;-70
2021/04/24 11:11:08;;;;;;;3.70;1.27;;;;;;;11.86;48.32;101953.66;5075021;28;20450;-72
2021/04/24 11:13:37;;;;;;;1.33;0.87;;;;;;;11.94;49.13;101949.56;5075501;28;20485;-70
2021/04/24 11:16:07;;;;;;;0.60;0.40;;;;;;;11.98;48.76;101947.91;5075439;28;20526;-72
2021/04/24 11:18:35;;;;;;;5.93;1.13;;;;;;;12.14;48.92;101940.53;5075822;28;20445;-72
2021/04/24 11:21:03;;;;;;;2.07;1.40;;;;;;;12.61;47.80;101942.72;5075510;28;20437;-72
2021/04/24 11:23:46;;;;;;;1.33;0.83;;;;;;;12.80;46.96;101943.72;5075261;28;20441;-72
2021/04/24 11:26:15;;;;;;;1.20;0.90;;;;;;;12.85;46.84;101948.28;5075075;28;20487;-72
2021/04/24 11:29:05;;;;;;;0.77;0.60;;;;;;;12.58;46.99;101946.03;5074834;28;20445;-72
2021/04/24 11:32:02;;;;;;;1.00;0.80;;;;;;;12.30;46.77;101948.31;5075216;28;20453;-74